sensor_id;sensor_type;location;lat;lon;timestamp;P1;durP1;ratioP1;P2;durP2;ratioP2
71127;SDS011;59249;59.736;30.568;2023-02-28T00:01:35;8.00;;;3.65;;
71127;SDS011;59249;59.736;30.568;2023-02-28T00:04:04;8.88;;;3.13;;
71127;SDS011;59249;59.736;30.568;2023-02-28T00:06:36;9.98;;;3.10;;
71127;SDS011;59249;59.736;30.568;2023-02-28T00:09:04;7.07;;;2.88;;
71127;SDS011;59249;59.736;30.568;2023-02-28T00:11:33;7.23;;;3.03;;
71127;SDS011;59249;59.736;30.568;2023-02-28T00:14:03;6.97;;;3.13;;
71127;SDS011;59249;59.736;30.568;2023-02-28T00:16:32;5.28;;;1.65;;
71127;SDS011;59249;59.736;30.568;2023-02-28T00:19:01;6.45;;;2.70;;
71127;SDS011;59249;59.736;30.568;2023-02-28T00:21:30;7.53;;;2.13;;
71127;SDS011;59249;59.736;30.568;2023-02-28T00:23:58;5.77;;;2.20;;
71127;SDS011;59249;59.736;30.568;2023-02-28T00:26:27;4.57;;;1.77;;
71127;SDS011;59249;59.736;30.568;2023-02-28T00:28:56;7.45;;;2.28;;
71127;SDS011;59249;59.736;30.568;2023-02-28T00:31:26;6.07;;;1.92;;
71127;SDS011;59249;59.736;30.568;2023-02-28T00:33:55;5.75;;;2.22;;
71127;SDS011;59249;59.736;30.568;2023-02-28T00:36:24;6.77;;;1.47;;
71127;SDS011;59249;59.736;30.568;2023-02-28T00:38:53;6.07;;;1.70;;
71127;SDS011;59249;59.736;30.568;2023-02-28T00:41:22;4.45;;;1.70;;
71127;SDS011;59249;59.736;30.568;2023-02-28T00:43:50;5.18;;;1.40;;
71127;SDS011;59249;59.736;30.568;2023-02-28T00:46:19;5.53;;;2.03;;
71127;SDS011;59249;59.736;30.568;2023-02-28T00:48:51;4.87;;;1.47;;
71127;SDS011;59249;59.736;30.568;2023-02-28T00:51:19;4.00;;;1.67;;
71127;SDS011;59249;59.736;30.568;2023-02-28T00:53:48;4.95;;;1.63;;
71127;SDS011;59249;59.736;30.568;2023-02-28T00:56:17;5.25;;;1.55;;
71127;SDS011;59249;59.736;30.568;2023-02-28T00:58:46;4.50;;;1.73;;
71127;SDS011;59249;59.736;30.568;2023-02-28T01:01:15;3.70;;;0.87;;
71127;SDS011;59249;59.736;30.568;2023-02-28T01:03:43;4.55;;;1.58;;
71127;SDS011;59249;59.736;30.568;2023-02-28T01:06:14;4.57;;;1.33;;
71127;SDS011;59249;59.736;30.568;2023-02-28T01:08:43;4.45;;;1.30;;
71127;SDS011;59249;59.736;30.568;2023-02-28T01:11:13;3.10;;;0.77;;
71127;SDS011;59249;59.736;30.568;2023-02-28T01:13:45;5.33;;;1.90;;
71127;SDS011;59249;59.736;30.568;2023-02-28T01:16:14;3.35;;;0.90;;
71127;SDS011;59249;59.736;30.568;2023-02-28T01:18:44;3.65;;;1.20;;
71127;SDS011;59249;59.736;30.568;2023-02-28T01:21:15;2.75;;;0.50;;
71127;SDS011;59249;59.736;30.568;2023-02-28T01:23:47;2.28;;;0.60;;
71127;SDS011;59249;59.736;30.568;2023-02-28T01:26:17;2.20;;;0.40;;
71127;SDS011;59249;59.736;30.568;2023-02-28T01:28:48;2.28;;;0.40;;
71127;SDS011;59249;59.736;30.568;2023-02-28T01:31:18;1.73;;;0.30;;
71127;SDS011;59249;59.736;30.568;2023-02-28T01:33:49;3.45;;;0.52;;
71127;SDS011;59249;59.736;30.568;2023-02-28T01:36:20;3.13;;;0.60;;
71127;SDS011;59249;59.736;30.568;2023-02-28T01:38:51;7.10;;;0.40;;
71127;SDS011;59249;59.736;30.568;2023-02-28T01:41:21;1.80;;;0.20;;
71127;SDS011;59249;59.736;30.568;2023-02-28T01:43:58;3.15;;;0.45;;
71127;SDS011;59249;59.736;30.568;2023-02-28T01:46:32;1.48;;;0.25;;
71127;SDS011;59249;59.736;30.568;2023-02-28T01:49:05;2.17;;;0.30;;
71127;SDS011;59249;59.736;30.568;2023-02-28T01:51:41;2.43;;;0.37;;
71127;SDS011;59249;59.736;30.568;2023-02-28T01:54:18;3.42;;;0.25;;
71127;SDS011;59249;59.736;30.568;2023-02-28T01:56:52;1.33;;;0.30;;
71127;SDS011;59249;59.736;30.568;2023-02-28T01:59:27;2.80;;;0.32;;
71127;SDS011;59249;59.736;30.568;2023-02-28T02:02:01;3.78;;;0.30;;
71127;SDS011;59249;59.736;30.568;2023-02-28T02:04:32;1.13;;;0.13;;
71127;SDS011;59249;59.736;30.568;2023-02-28T02:07:11;1.67;;;0.30;;
71127;SDS011;59249;59.736;30.568;2023-02-28T02:09:44;2.63;;;0.35;;
71127;SDS011;59249;59.736;30.568;2023-02-28T02:12:15;1.00;;;0.22;;
71127;SDS011;59249;59.736;30.568;2023-02-28T02:15:03;2.40;;;0.20;;
71127;SDS011;59249;59.736;30.568;2023-02-28T02:17:41;1.50;;;0.20;;
71127;SDS011;59249;59.736;30.568;2023-02-28T02:20:24;2.17;;;0.10;;
71127;SDS011;59249;59.736;30.568;2023-02-28T02:23:57;1.58;;;0.20;;
71127;SDS011;59249;59.736;30.568;2023-02-28T02:27:05;1.85;;;0.15;;
71127;SDS011;59249;59.736;30.568;2023-02-28T02:33:23;1.07;;;0.57;;
71127;SDS011;59249;59.736;30.568;2023-02-28T02:36:32;4.63;;;0.35;;
71127;SDS011;59249;59.736;30.568;2023-02-28T02:39:06;4.68;;;0.47;;
71127;SDS011;59249;59.736;30.568;2023-02-28T02:41:45;0.80;;;0.10;;
71127;SDS011;59249;59.736;30.568;2023-02-28T02:44:20;1.42;;;0.20;;
71127;SDS011;59249;59.736;30.568;2023-02-28T02:46:58;1.63;;;0.10;;
71127;SDS011;59249;59.736;30.568;2023-02-28T02:49:35;0.77;;;0.10;;
71127;SDS011;59249;59.736;30.568;2023-02-28T02:52:10;1.85;;;0.20;;
71127;SDS011;59249;59.736;30.568;2023-02-28T02:54:48;2.47;;;0.77;;
71127;SDS011;59249;59.736;30.568;2023-02-28T02:57:23;4.65;;;1.35;;
71127;SDS011;59249;59.736;30.568;2023-02-28T02:59:57;5.27;;;1.27;;
71127;SDS011;59249;59.736;30.568;2023-02-28T03:02:30;2.00;;;0.47;;
71127;SDS011;59249;59.736;30.568;2023-02-28T03:05:03;1.00;;;0.20;;
71127;SDS011;59249;59.736;30.568;2023-02-28T03:07:41;2.60;;;0.10;;
71127;SDS011;59249;59.736;30.568;2023-02-28T03:10:28;0.63;;;0.10;;
71127;SDS011;59249;59.736;30.568;2023-02-28T03:13:05;1.00;;;0.20;;
71127;SDS011;59249;59.736;30.568;2023-02-28T03:15:57;2.17;;;0.20;;
71127;SDS011;59249;59.736;30.568;2023-02-28T03:18:44;1.30;;;0.20;;
71127;SDS011;59249;59.736;30.568;2023-02-28T03:21:27;2.40;;;0.40;;
71127;SDS011;59249;59.736;30.568;2023-02-28T03:24:08;1.50;;;0.20;;
71127;SDS011;59249;59.736;30.568;2023-02-28T03:26:45;4.87;;;1.63;;
71127;SDS011;59249;59.736;30.568;2023-02-28T03:29:23;4.40;;;1.52;;
71127;SDS011;59249;59.736;30.568;2023-02-28T03:32:04;3.08;;;0.50;;
71127;SDS011;59249;59.736;30.568;2023-02-28T03:34:41;1.67;;;0.40;;
71127;SDS011;59249;59.736;30.568;2023-02-28T03:37:19;1.05;;;0.20;;
71127;SDS011;59249;59.736;30.568;2023-02-28T03:39:53;0.73;;;0.10;;
71127;SDS011;59249;59.736;30.568;2023-02-28T03:42:31;16.27;;;5.97;;
71127;SDS011;59249;59.736;30.568;2023-02-28T03:45:04;3.78;;;0.70;;
71127;SDS011;59249;59.736;30.568;2023-02-28T03:47:41;1.30;;;0.10;;
71127;SDS011;59249;59.736;30.568;2023-02-28T03:50:15;0.85;;;0.10;;
71127;SDS011;59249;59.736;30.568;2023-02-28T03:52:48;4.03;;;0.60;;
71127;SDS011;59249;59.736;30.568;2023-02-28T03:55:30;1.48;;;0.30;;
71127;SDS011;59249;59.736;30.568;2023-02-28T03:58:09;1.17;;;0.20;;
71127;SDS011;59249;59.736;30.568;2023-02-28T04:00:49;13.00;;;4.03;;
71127;SDS011;59249;59.736;30.568;2023-02-28T04:03:26;5.05;;;1.52;;
71127;SDS011;59249;59.736;30.568;2023-02-28T04:05:55;2.03;;;0.70;;
71127;SDS011;59249;59.736;30.568;2023-02-28T04:08:26;1.45;;;0.20;;
71127;SDS011;59249;59.736;30.568;2023-02-28T04:10:57;0.20;;;0.03;;
71127;SDS011;59249;59.736;30.568;2023-02-28T04:13:32;1.30;;;0.20;;
71127;SDS011;59249;59.736;30.568;2023-02-28T04:16:01;1.20;;;0.10;;
71127;SDS011;59249;59.736;30.568;2023-02-28T04:18:47;2.60;;;0.30;;
71127;SDS011;59249;59.736;30.568;2023-02-28T04:21:15;0.63;;;0.10;;
71127;SDS011;59249;59.736;30.568;2023-02-28T04:23:47;1.40;;;0.20;;
71127;SDS011;59249;59.736;30.568;2023-02-28T04:26:17;1.00;;;0.10;;
71127;SDS011;59249;59.736;30.568;2023-02-28T04:28:46;0.98;;;0.10;;
71127;SDS011;59249;59.736;30.568;2023-02-28T04:31:14;2.37;;;0.10;;
71127;SDS011;59249;59.736;30.568;2023-02-28T04:33:43;1.95;;;0.10;;
71127;SDS011;59249;59.736;30.568;2023-02-28T04:36:12;1.38;;;0.10;;
71127;SDS011;59249;59.736;30.568;2023-02-28T04:38:45;1.08;;;0.10;;
71127;SDS011;59249;59.736;30.568;2023-02-28T04:41:14;0.50;;;0.10;;
71127;SDS011;59249;59.736;30.568;2023-02-28T04:43:44;2.40;;;0.23;;
71127;SDS011;59249;59.736;30.568;2023-02-28T04:46:13;2.10;;;0.30;;
71127;SDS011;59249;59.736;30.568;2023-02-28T04:48:42;0.38;;;0.10;;
71127;SDS011;59249;59.736;30.568;2023-02-28T04:51:12;1.05;;;0.10;;
71127;SDS011;59249;59.736;30.568;2023-02-28T04:53:42;1.67;;;0.10;;
71127;SDS011;59249;59.736;30.568;2023-02-28T04:56:12;0.87;;;0.10;;
71127;SDS011;59249;59.736;30.568;2023-02-28T04:58:45;2.58;;;0.20;;
71127;SDS011;59249;59.736;30.568;2023-02-28T05:01:16;0.93;;;0.05;;
71127;SDS011;59249;59.736;30.568;2023-02-28T05:03:49;0.82;;;0.10;;
71127;SDS011;59249;59.736;30.568;2023-02-28T05:06:20;1.63;;;0.10;;
71127;SDS011;59249;59.736;30.568;2023-02-28T05:08:51;1.93;;;0.33;;
71127;SDS011;59249;59.736;30.568;2023-02-28T05:11:21;0.70;;;0.10;;
71127;SDS011;59249;59.736;30.568;2023-02-28T05:13:54;1.00;;;0.20;;
71127;SDS011;59249;59.736;30.568;2023-02-28T05:16:23;1.75;;;0.10;;
71127;SDS011;59249;59.736;30.568;2023-02-28T05:18:52;1.13;;;0.20;;
71127;SDS011;59249;59.736;30.568;2023-02-28T05:21:23;3.00;;;0.10;;
71127;SDS011;59249;59.736;30.568;2023-02-28T05:23:57;0.85;;;0.15;;
71127;SDS011;59249;59.736;30.568;2023-02-28T05:26:29;0.90;;;0.10;;
71127;SDS011;59249;59.736;30.568;2023-02-28T05:29:00;1.13;;;0.13;;
71127;SDS011;59249;59.736;30.568;2023-02-28T05:31:28;1.95;;;0.20;;
71127;SDS011;59249;59.736;30.568;2023-02-28T05:33:58;1.90;;;0.10;;
71127;SDS011;59249;59.736;30.568;2023-02-28T05:36:27;1.17;;;0.10;;
71127;SDS011;59249;59.736;30.568;2023-02-28T05:38:55;0.85;;;0.10;;
71127;SDS011;59249;59.736;30.568;2023-02-28T05:41:24;1.60;;;0.30;;
71127;SDS011;59249;59.736;30.568;2023-02-28T05:43:54;2.42;;;0.60;;
71127;SDS011;59249;59.736;30.568;2023-02-28T05:46:24;0.97;;;0.20;;
71127;SDS011;59249;59.736;30.568;2023-02-28T05:48:53;2.35;;;0.30;;
71127;SDS011;59249;59.736;30.568;2023-02-28T05:51:22;2.00;;;0.20;;
71127;SDS011;59249;59.736;30.568;2023-02-28T05:53:51;2.85;;;0.50;;
71127;SDS011;59249;59.736;30.568;2023-02-28T05:56:20;1.33;;;0.10;;
71127;SDS011;59249;59.736;30.568;2023-02-28T05:58:49;1.90;;;0.43;;
71127;SDS011;59249;59.736;30.568;2023-02-28T06:01:22;4.22;;;0.40;;
71127;SDS011;59249;59.736;30.568;2023-02-28T06:04:01;1.23;;;0.35;;
71127;SDS011;59249;59.736;30.568;2023-02-28T06:06:31;1.67;;;0.20;;
71127;SDS011;59249;59.736;30.568;2023-02-28T06:09:03;1.75;;;0.25;;
71127;SDS011;59249;59.736;30.568;2023-02-28T06:11:32;1.70;;;0.20;;
71127;SDS011;59249;59.736;30.568;2023-02-28T06:14:01;1.85;;;0.22;;
71127;SDS011;59249;59.736;30.568;2023-02-28T06:16:33;1.83;;;0.28;;
71127;SDS011;59249;59.736;30.568;2023-02-28T06:19:03;1.63;;;0.30;;
71127;SDS011;59249;59.736;30.568;2023-02-28T06:21:32;1.95;;;0.30;;
71127;SDS011;59249;59.736;30.568;2023-02-28T06:24:01;3.27;;;0.30;;
71127;SDS011;59249;59.736;30.568;2023-02-28T06:26:31;3.55;;;1.02;;
71127;SDS011;59249;59.736;30.568;2023-02-28T06:28:59;6.25;;;1.00;;
71127;SDS011;59249;59.736;30.568;2023-02-28T06:31:29;4.63;;;0.90;;
71127;SDS011;59249;59.736;30.568;2023-02-28T06:34:00;1.55;;;0.40;;
71127;SDS011;59249;59.736;30.568;2023-02-28T06:36:29;5.07;;;0.20;;
71127;SDS011;59249;59.736;30.568;2023-02-28T06:38:58;5.57;;;0.40;;
71127;SDS011;59249;59.736;30.568;2023-02-28T06:41:27;0.93;;;0.20;;
71127;SDS011;59249;59.736;30.568;2023-02-28T06:44:10;2.00;;;0.32;;
71127;SDS011;59249;59.736;30.568;2023-02-28T06:46:41;2.58;;;0.43;;
71127;SDS011;59249;59.736;30.568;2023-02-28T06:49:14;1.97;;;0.37;;
71127;SDS011;59249;59.736;30.568;2023-02-28T06:51:44;1.10;;;0.40;;
71127;SDS011;59249;59.736;30.568;2023-02-28T06:54:13;3.20;;;0.63;;
71127;SDS011;59249;59.736;30.568;2023-02-28T06:56:41;3.47;;;0.70;;
71127;SDS011;59249;59.736;30.568;2023-02-28T06:59:10;2.63;;;0.52;;
71127;SDS011;59249;59.736;30.568;2023-02-28T07:01:39;4.23;;;1.10;;
71127;SDS011;59249;59.736;30.568;2023-02-28T07:04:08;3.15;;;0.60;;
71127;SDS011;59249;59.736;30.568;2023-02-28T07:06:38;3.03;;;0.68;;
71127;SDS011;59249;59.736;30.568;2023-02-28T07:09:07;2.38;;;0.50;;
71127;SDS011;59249;59.736;30.568;2023-02-28T07:11:37;5.40;;;0.88;;
71127;SDS011;59249;59.736;30.568;2023-02-28T07:14:06;2.77;;;0.40;;
71127;SDS011;59249;59.736;30.568;2023-02-28T07:16:35;2.95;;;0.55;;
71127;SDS011;59249;59.736;30.568;2023-02-28T07:19:04;1.50;;;0.35;;
71127;SDS011;59249;59.736;30.568;2023-02-28T07:21:32;2.22;;;0.50;;
71127;SDS011;59249;59.736;30.568;2023-02-28T07:24:02;2.33;;;0.20;;
71127;SDS011;59249;59.736;30.568;2023-02-28T07:26:32;2.93;;;0.40;;
71127;SDS011;59249;59.736;30.568;2023-02-28T07:29:01;3.13;;;0.45;;
71127;SDS011;59249;59.736;30.568;2023-02-28T07:31:30;1.67;;;0.20;;
71127;SDS011;59249;59.736;30.568;2023-02-28T07:33:59;2.28;;;0.60;;
71127;SDS011;59249;59.736;30.568;2023-02-28T07:36:29;5.70;;;0.50;;
71127;SDS011;59249;59.736;30.568;2023-02-28T07:38:57;6.67;;;1.03;;
71127;SDS011;59249;59.736;30.568;2023-02-28T07:41:28;2.20;;;0.43;;
71127;SDS011;59249;59.736;30.568;2023-02-28T07:43:59;2.50;;;0.30;;
71127;SDS011;59249;59.736;30.568;2023-02-28T07:46:29;7.63;;;0.47;;
71127;SDS011;59249;59.736;30.568;2023-02-28T07:49:02;4.43;;;0.73;;
71127;SDS011;59249;59.736;30.568;2023-02-28T07:51:32;6.37;;;0.83;;
71127;SDS011;59249;59.736;30.568;2023-02-28T07:54:00;6.65;;;1.33;;
71127;SDS011;59249;59.736;30.568;2023-02-28T07:56:31;1.85;;;0.28;;
71127;SDS011;59249;59.736;30.568;2023-02-28T07:58:59;2.70;;;0.73;;
71127;SDS011;59249;59.736;30.568;2023-02-28T08:01:29;1.33;;;0.43;;
71127;SDS011;59249;59.736;30.568;2023-02-28T08:03:58;1.20;;;0.10;;
71127;SDS011;59249;59.736;30.568;2023-02-28T08:06:27;2.90;;;0.30;;
71127;SDS011;59249;59.736;30.568;2023-02-28T08:08:56;3.47;;;0.30;;
71127;SDS011;59249;59.736;30.568;2023-02-28T08:11:24;2.60;;;0.50;;
71127;SDS011;59249;59.736;30.568;2023-02-28T08:13:55;0.75;;;0.10;;
71127;SDS011;59249;59.736;30.568;2023-02-28T08:16:24;3.63;;;0.40;;
71127;SDS011;59249;59.736;30.568;2023-02-28T08:18:52;1.20;;;0.20;;
71127;SDS011;59249;59.736;30.568;2023-02-28T08:21:21;2.03;;;0.32;;
71127;SDS011;59249;59.736;30.568;2023-02-28T08:23:50;2.85;;;0.30;;
71127;SDS011;59249;59.736;30.568;2023-02-28T08:26:19;4.65;;;0.30;;
71127;SDS011;59249;59.736;30.568;2023-02-28T08:28:48;0.53;;;0.10;;
71127;SDS011;59249;59.736;30.568;2023-02-28T08:31:18;1.30;;;0.20;;
71127;SDS011;59249;59.736;30.568;2023-02-28T08:33:47;1.85;;;0.30;;
71127;SDS011;59249;59.736;30.568;2023-02-28T08:36:17;2.65;;;0.63;;
71127;SDS011;59249;59.736;30.568;2023-02-28T08:38:48;0.88;;;0.20;;
71127;SDS011;59249;59.736;30.568;2023-02-28T08:41:17;1.23;;;0.20;;
71127;SDS011;59249;59.736;30.568;2023-02-28T08:43:46;1.88;;;0.60;;
71127;SDS011;59249;59.736;30.568;2023-02-28T08:46:14;1.70;;;0.20;;
71127;SDS011;59249;59.736;30.568;2023-02-28T08:48:45;1.73;;;0.40;;
71127;SDS011;59249;59.736;30.568;2023-02-28T08:51:15;2.38;;;0.25;;
71127;SDS011;59249;59.736;30.568;2023-02-28T08:53:48;6.33;;;0.70;;
71127;SDS011;59249;59.736;30.568;2023-02-28T08:56:17;8.48;;;0.60;;
71127;SDS011;59249;59.736;30.568;2023-02-28T08:58:47;2.17;;;0.40;;
71127;SDS011;59249;59.736;30.568;2023-02-28T09:01:18;2.55;;;0.45;;
71127;SDS011;59249;59.736;30.568;2023-02-28T09:03:51;3.28;;;0.38;;
71127;SDS011;59249;59.736;30.568;2023-02-28T09:06:20;2.10;;;0.70;;
71127;SDS011;59249;59.736;30.568;2023-02-28T09:08:51;2.15;;;0.50;;
71127;SDS011;59249;59.736;30.568;2023-02-28T09:11:21;1.55;;;0.40;;
71127;SDS011;59249;59.736;30.568;2023-02-28T09:13:50;1.77;;;0.25;;
71127;SDS011;59249;59.736;30.568;2023-02-28T09:16:19;4.22;;;0.77;;
71127;SDS011;59249;59.736;30.568;2023-02-28T09:18:47;4.10;;;0.20;;
71127;SDS011;59249;59.736;30.568;2023-02-28T09:21:18;1.55;;;0.50;;
71127;SDS011;59249;59.736;30.568;2023-02-28T09:23:48;1.67;;;0.20;;
71127;SDS011;59249;59.736;30.568;2023-02-28T09:26:18;1.65;;;0.22;;
71127;SDS011;59249;59.736;30.568;2023-02-28T09:28:50;2.15;;;0.60;;
71127;SDS011;59249;59.736;30.568;2023-02-28T09:31:22;1.17;;;0.30;;
71127;SDS011;59249;59.736;30.568;2023-02-28T09:33:55;2.05;;;0.30;;
71127;SDS011;59249;59.736;30.568;2023-02-28T09:36:27;2.33;;;0.20;;
71127;SDS011;59249;59.736;30.568;2023-02-28T09:39:10;9.82;;;0.30;;
71127;SDS011;59249;59.736;30.568;2023-02-28T09:41:40;6.55;;;0.35;;
71127;SDS011;59249;59.736;30.568;2023-02-28T09:44:16;4.90;;;0.67;;
71127;SDS011;59249;59.736;30.568;2023-02-28T09:46:56;2.40;;;0.30;;
71127;SDS011;59249;59.736;30.568;2023-02-28T09:49:32;3.80;;;0.20;;
71127;SDS011;59249;59.736;30.568;2023-02-28T09:52:10;1.27;;;0.17;;
71127;SDS011;59249;59.736;30.568;2023-02-28T09:54:45;1.55;;;0.20;;
71127;SDS011;59249;59.736;30.568;2023-02-28T09:57:17;0.97;;;0.10;;
71127;SDS011;59249;59.736;30.568;2023-02-28T09:59:59;2.42;;;0.32;;
71127;SDS011;59249;59.736;30.568;2023-02-28T10:02:49;2.67;;;0.20;;
71127;SDS011;59249;59.736;30.568;2023-02-28T10:05:31;3.85;;;0.45;;
71127;SDS011;59249;59.736;30.568;2023-02-28T10:08:10;3.05;;;0.30;;
71127;SDS011;59249;59.736;30.568;2023-02-28T10:10:44;5.13;;;0.50;;
71127;SDS011;59249;59.736;30.568;2023-02-28T10:13:17;0.65;;;0.17;;
71127;SDS011;59249;59.736;30.568;2023-02-28T10:15:55;1.15;;;0.30;;
71127;SDS011;59249;59.736;30.568;2023-02-28T10:18:31;3.53;;;0.57;;
71127;SDS011;59249;59.736;30.568;2023-02-28T10:21:16;1.08;;;0.20;;
71127;SDS011;59249;59.736;30.568;2023-02-28T10:23:56;4.63;;;0.77;;
71127;SDS011;59249;59.736;30.568;2023-02-28T10:26:32;2.83;;;1.08;;
71127;SDS011;59249;59.736;30.568;2023-02-28T10:29:01;2.97;;;0.17;;
71127;SDS011;59249;59.736;30.568;2023-02-28T10:31:30;2.72;;;0.25;;
71127;SDS011;59249;59.736;30.568;2023-02-28T10:33:59;4.82;;;0.32;;
71127;SDS011;59249;59.736;30.568;2023-02-28T10:36:30;1.47;;;0.20;;
71127;SDS011;59249;59.736;30.568;2023-02-28T10:39:02;2.35;;;0.20;;
71127;SDS011;59249;59.736;30.568;2023-02-28T10:42:24;2.25;;;0.35;;
71127;SDS011;59249;59.736;30.568;2023-02-28T10:45:05;2.50;;;0.40;;
71127;SDS011;59249;59.736;30.568;2023-02-28T10:47:41;2.03;;;0.50;;
71127;SDS011;59249;59.736;30.568;2023-02-28T10:50:29;2.43;;;0.40;;
71127;SDS011;59249;59.736;30.568;2023-02-28T10:53:13;5.63;;;0.50;;
71127;SDS011;59249;59.736;30.568;2023-02-28T10:55:58;2.20;;;0.22;;
71127;SDS011;59249;59.736;30.568;2023-02-28T10:58:30;1.80;;;0.50;;
71127;SDS011;59249;59.736;30.568;2023-02-28T11:01:12;2.15;;;0.40;;
71127;SDS011;59249;59.736;30.568;2023-02-28T11:03:43;2.67;;;0.33;;
71127;SDS011;59249;59.736;30.568;2023-02-28T11:06:14;4.43;;;0.40;;
71127;SDS011;59249;59.736;30.568;2023-02-28T11:08:47;0.35;;;0.10;;
71127;SDS011;59249;59.736;30.568;2023-02-28T11:11:22;0.68;;;0.20;;
71127;SDS011;59249;59.736;30.568;2023-02-28T11:13:57;3.97;;;0.30;;
71127;SDS011;59249;59.736;30.568;2023-02-28T11:16:33;1.57;;;0.23;;
71127;SDS011;59249;59.736;30.568;2023-02-28T11:19:05;2.70;;;0.20;;
71127;SDS011;59249;59.736;30.568;2023-02-28T11:21:48;1.23;;;0.20;;
71127;SDS011;59249;59.736;30.568;2023-02-28T11:24:24;1.10;;;0.10;;
71127;SDS011;59249;59.736;30.568;2023-02-28T11:26:58;1.58;;;0.10;;
71127;SDS011;59249;59.736;30.568;2023-02-28T11:29:27;0.97;;;0.07;;
71127;SDS011;59249;59.736;30.568;2023-02-28T11:32:03;1.23;;;0.15;;
71127;SDS011;59249;59.736;30.568;2023-02-28T11:34:46;1.33;;;0.17;;
71127;SDS011;59249;59.736;30.568;2023-02-28T11:37:31;1.67;;;0.10;;
71127;SDS011;59249;59.736;30.568;2023-02-28T11:40:01;0.52;;;0.13;;
71127;SDS011;59249;59.736;30.568;2023-02-28T11:42:44;2.43;;;0.10;;
71127;SDS011;59249;59.736;30.568;2023-02-28T11:45:45;0.70;;;0.20;;
71127;SDS011;59249;59.736;30.568;2023-02-28T11:48:32;0.82;;;0.20;;
71127;SDS011;59249;59.736;30.568;2023-02-28T11:51:15;1.25;;;0.10;;
71127;SDS011;59249;59.736;30.568;2023-02-28T11:54:05;1.05;;;0.10;;
71127;SDS011;59249;59.736;30.568;2023-02-28T11:57:09;1.30;;;0.10;;
71127;SDS011;59249;59.736;30.568;2023-02-28T12:00:03;1.55;;;0.20;;
71127;SDS011;59249;59.736;30.568;2023-02-28T12:02:57;1.50;;;0.20;;
71127;SDS011;59249;59.736;30.568;2023-02-28T12:05:39;3.92;;;0.20;;
71127;SDS011;59249;59.736;30.568;2023-02-28T12:08:18;1.65;;;0.20;;
71127;SDS011;59249;59.736;30.568;2023-02-28T12:11:06;2.10;;;0.10;;
71127;SDS011;59249;59.736;30.568;2023-02-28T12:13:48;4.07;;;0.40;;
71127;SDS011;59249;59.736;30.568;2023-02-28T12:16:45;0.95;;;0.10;;
71127;SDS011;59249;59.736;30.568;2023-02-28T12:19:26;1.48;;;0.20;;
71127;SDS011;59249;59.736;30.568;2023-02-28T12:22:14;0.95;;;0.10;;
71127;SDS011;59249;59.736;30.568;2023-02-28T12:25:02;6.17;;;0.60;;
71127;SDS011;59249;59.736;30.568;2023-02-28T12:27:51;3.15;;;0.22;;
71127;SDS011;59249;59.736;30.568;2023-02-28T12:30:21;3.45;;;0.30;;
71127;SDS011;59249;59.736;30.568;2023-02-28T12:32:55;2.80;;;0.50;;
71127;SDS011;59249;59.736;30.568;2023-02-28T12:35:32;1.35;;;0.20;;
71127;SDS011;59249;59.736;30.568;2023-02-28T12:38:08;4.43;;;0.20;;
71127;SDS011;59249;59.736;30.568;2023-02-28T12:40:45;0.70;;;0.10;;
71127;SDS011;59249;59.736;30.568;2023-02-28T12:43:20;1.52;;;0.17;;
71127;SDS011;59249;59.736;30.568;2023-02-28T12:45:55;0.43;;;0.10;;
71127;SDS011;59249;59.736;30.568;2023-02-28T12:48:35;0.40;;;0.10;;
71127;SDS011;59249;59.736;30.568;2023-02-28T12:51:09;1.07;;;0.17;;
71127;SDS011;59249;59.736;30.568;2023-02-28T12:53:44;1.17;;;0.25;;
71127;SDS011;59249;59.736;30.568;2023-02-28T12:56:30;1.48;;;0.32;;
71127;SDS011;59249;59.736;30.568;2023-02-28T12:59:13;1.00;;;0.13;;
71127;SDS011;59249;59.736;30.568;2023-02-28T13:01:55;1.38;;;0.20;;
71127;SDS011;59249;59.736;30.568;2023-02-28T13:05:00;7.80;;;0.50;;
71127;SDS011;59249;59.736;30.568;2023-02-28T13:07:59;2.30;;;0.30;;
71127;SDS011;59249;59.736;30.568;2023-02-28T13:10:48;5.63;;;0.70;;
71127;SDS011;59249;59.736;30.568;2023-02-28T13:13:22;2.35;;;0.20;;
71127;SDS011;59249;59.736;30.568;2023-02-28T13:15:56;1.10;;;0.10;;
71127;SDS011;59249;59.736;30.568;2023-02-28T13:18:34;0.87;;;0.20;;
71127;SDS011;59249;59.736;30.568;2023-02-28T13:21:08;2.50;;;0.50;;
71127;SDS011;59249;59.736;30.568;2023-02-28T13:24:02;2.47;;;0.28;;
71127;SDS011;59249;59.736;30.568;2023-02-28T13:29:59;3.40;;;0.30;;
71127;SDS011;59249;59.736;30.568;2023-02-28T13:32:33;0.63;;;0.10;;
71127;SDS011;59249;59.736;30.568;2023-02-28T13:38:17;1.67;;;0.20;;
71127;SDS011;59249;59.736;30.568;2023-02-28T13:44:15;1.98;;;0.45;;
71127;SDS011;59249;59.736;30.568;2023-02-28T13:52:51;5.60;;;0.60;;
71127;SDS011;59249;59.736;30.568;2023-02-28T13:56:02;2.20;;;0.20;;
71127;SDS011;59249;59.736;30.568;2023-02-28T13:58:49;2.65;;;0.68;;
71127;SDS011;59249;59.736;30.568;2023-02-28T14:01:29;0.73;;;0.20;;
71127;SDS011;59249;59.736;30.568;2023-02-28T14:07:30;2.30;;;0.10;;
71127;SDS011;59249;59.736;30.568;2023-02-28T14:10:21;3.85;;;0.35;;
71127;SDS011;59249;59.736;30.568;2023-02-28T14:13:03;1.27;;;0.38;;
71127;SDS011;59249;59.736;30.568;2023-02-28T14:18:32;1.05;;;0.17;;
71127;SDS011;59249;59.736;30.568;2023-02-28T14:21:09;0.55;;;0.10;;
71127;SDS011;59249;59.736;30.568;2023-02-28T14:27:21;0.77;;;0.20;;
71127;SDS011;59249;59.736;30.568;2023-02-28T14:30:15;2.97;;;0.20;;
71127;SDS011;59249;59.736;30.568;2023-02-28T14:33:16;0.77;;;0.20;;
71127;SDS011;59249;59.736;30.568;2023-02-28T14:36:00;0.57;;;0.00;;
71127;SDS011;59249;59.736;30.568;2023-02-28T14:38:40;0.98;;;0.13;;
71127;SDS011;59249;59.736;30.568;2023-02-28T14:41:16;1.27;;;0.50;;
71127;SDS011;59249;59.736;30.568;2023-02-28T14:43:53;1.47;;;0.23;;
71127;SDS011;59249;59.736;30.568;2023-02-28T14:46:28;0.77;;;0.10;;
71127;SDS011;59249;59.736;30.568;2023-02-28T14:49:04;2.03;;;0.30;;
71127;SDS011;59249;59.736;30.568;2023-02-28T14:51:34;2.10;;;0.25;;
71127;SDS011;59249;59.736;30.568;2023-02-28T14:54:03;0.93;;;0.17;;
71127;SDS011;59249;59.736;30.568;2023-02-28T14:56:34;3.10;;;0.30;;
71127;SDS011;59249;59.736;30.568;2023-02-28T14:59:05;0.90;;;0.10;;
71127;SDS011;59249;59.736;30.568;2023-02-28T15:01:53;2.20;;;0.30;;
71127;SDS011;59249;59.736;30.568;2023-02-28T15:04:54;2.70;;;0.43;;
71127;SDS011;59249;59.736;30.568;2023-02-28T15:07:25;6.82;;;0.45;;
71127;SDS011;59249;59.736;30.568;2023-02-28T15:10:10;4.73;;;0.30;;
71127;SDS011;59249;59.736;30.568;2023-02-28T15:12:48;6.53;;;0.70;;
71127;SDS011;59249;59.736;30.568;2023-02-28T15:15:23;1.15;;;0.20;;
71127;SDS011;59249;59.736;30.568;2023-02-28T15:18:15;5.45;;;0.30;;
71127;SDS011;59249;59.736;30.568;2023-02-28T15:20:53;2.50;;;0.43;;
71127;SDS011;59249;59.736;30.568;2023-02-28T15:23:23;2.83;;;0.30;;
71127;SDS011;59249;59.736;30.568;2023-02-28T15:25:53;2.67;;;0.20;;
71127;SDS011;59249;59.736;30.568;2023-02-28T15:28:22;1.60;;;0.28;;
71127;SDS011;59249;59.736;30.568;2023-02-28T15:30:53;7.43;;;0.35;;
71127;SDS011;59249;59.736;30.568;2023-02-28T15:33:28;0.60;;;0.20;;
71127;SDS011;59249;59.736;30.568;2023-02-28T15:36:06;2.17;;;0.40;;
71127;SDS011;59249;59.736;30.568;2023-02-28T15:38:43;2.05;;;0.52;;
71127;SDS011;59249;59.736;30.568;2023-02-28T15:41:23;0.93;;;0.20;;
71127;SDS011;59249;59.736;30.568;2023-02-28T15:44:13;0.73;;;0.30;;
71127;SDS011;59249;59.736;30.568;2023-02-28T15:46:53;1.02;;;0.10;;
71127;SDS011;59249;59.736;30.568;2023-02-28T15:49:32;9.27;;;0.47;;